createdAt,value
2018-07-27T00:01:14.432Z,4.20
2018-07-27T00:03:42.255Z,3.77
2018-07-27T00:06:10.056Z,3.80
2018-07-27T00:08:37.904Z,3.83
2018-07-27T00:11:05.687Z,3.67
2018-07-27T00:13:33.589Z,3.43
2018-07-27T00:16:01.824Z,4.10
2018-07-27T00:18:29.627Z,3.80
2018-07-27T00:20:57.519Z,4.00
2018-07-27T00:23:25.381Z,3.60
2018-07-27T00:25:53.179Z,4.07
2018-07-27T00:28:20.955Z,3.93
2018-07-27T00:30:48.675Z,3.67
2018-07-27T00:33:16.455Z,4.30
2018-07-27T00:35:44.188Z,4.10
2018-07-27T00:38:12.116Z,3.90
2018-07-27T00:40:39.975Z,3.53
2018-07-27T00:43:07.824Z,4.17
2018-07-27T00:45:35.690Z,3.60
2018-07-27T00:48:03.607Z,3.83
2018-07-27T00:50:31.328Z,3.80
2018-07-27T00:52:59.037Z,3.63
2018-07-27T00:55:26.836Z,3.73
2018-07-27T00:57:54.666Z,4.53
2018-07-27T01:00:22.467Z,4.20
2018-07-27T01:02:50.262Z,3.73
2018-07-27T01:07:52.571Z,4.07
2018-07-27T01:10:20.417Z,4.40
2018-07-27T01:12:48.234Z,4.10
2018-07-27T01:15:16.025Z,3.40
2018-07-27T01:17:43.840Z,4.07
2018-07-27T01:20:11.702Z,3.97
2018-07-27T01:22:39.540Z,3.97
2018-07-27T01:25:07.301Z,3.90
2018-07-27T01:27:35.098Z,3.77
2018-07-27T01:30:03.648Z,3.90
2018-07-27T01:32:31.459Z,3.87
2018-07-27T01:34:59.216Z,3.63
2018-07-27T01:37:26.963Z,3.60
2018-07-27T01:39:54.712Z,4.43
2018-07-27T01:42:22.521Z,4.07
2018-07-27T01:44:50.383Z,3.97
2018-07-27T01:47:18.207Z,3.73
2018-07-27T01:49:45.971Z,4.03
2018-07-27T01:52:13.751Z,4.47
2018-07-27T01:54:41.500Z,4.00
2018-07-27T01:57:09.243Z,3.90
2018-07-27T01:59:37.070Z,4.23
2018-07-27T02:02:05.080Z,3.90
2018-07-27T02:04:32.911Z,3.97
2018-07-27T02:07:00.721Z,3.93
2018-07-27T02:09:28.552Z,3.70
2018-07-27T02:11:56.382Z,3.77
2018-07-27T02:14:24.159Z,4.07
2018-07-27T02:16:52.016Z,3.83
2018-07-27T02:19:19.820Z,3.93
2018-07-27T02:21:47.707Z,4.60
2018-07-27T02:24:15.532Z,3.57
2018-07-27T02:26:43.334Z,3.50
2018-07-27T02:29:11.119Z,4.10
2018-07-27T02:31:38.936Z,3.80
2018-07-27T02:34:06.719Z,4.00
2018-07-27T02:36:34.523Z,4.10
2018-07-27T02:39:02.372Z,4.50
2018-07-27T02:41:30.197Z,4.13
2018-07-27T02:43:58.062Z,3.87
2018-07-27T02:46:25.866Z,4.50
2018-07-27T02:48:53.652Z,4.37
2018-07-27T02:51:21.521Z,4.80
2018-07-27T02:53:49.345Z,4.20
2018-07-27T02:56:17.203Z,4.40
2018-07-27T02:58:44.995Z,3.80
2018-07-27T03:01:12.821Z,4.30
2018-07-27T03:03:40.568Z,3.90
2018-07-27T03:06:08.288Z,4.73
2018-07-27T03:08:36.084Z,4.13
2018-07-27T03:11:03.913Z,4.47
2018-07-27T03:13:31.714Z,4.50
2018-07-27T03:15:59.644Z,3.97
2018-07-27T03:18:27.459Z,4.70
2018-07-27T03:20:55.383Z,4.60
2018-07-27T03:23:23.183Z,3.60
2018-07-27T03:25:50.959Z,3.97
2018-07-27T03:28:18.785Z,4.30
2018-07-27T03:30:46.611Z,4.30
2018-07-27T03:33:14.402Z,3.87
2018-07-27T03:35:42.187Z,4.50
2018-07-27T03:38:09.962Z,4.17
2018-07-27T03:40:37.755Z,4.30
2018-07-27T03:43:05.515Z,4.60
2018-07-27T03:45:33.367Z,4.30
2018-07-27T03:48:05.703Z,3.93
2018-07-27T03:50:33.452Z,4.40
2018-07-27T03:53:01.231Z,4.40
2018-07-27T03:55:28.963Z,4.57
2018-07-27T03:57:56.760Z,4.03
2018-07-27T04:00:24.602Z,4.43
2018-07-27T04:02:52.356Z,4.47
2018-07-27T04:05:20.124Z,4.77
2018-07-27T04:07:47.947Z,4.37
2018-07-27T04:10:15.767Z,4.27
2018-07-27T04:12:43.603Z,4.73
2018-07-27T04:15:11.380Z,4.50
2018-07-27T04:17:39.144Z,4.70
2018-07-27T04:20:07.120Z,4.43
2018-07-27T04:22:34.919Z,4.30
2018-07-27T04:25:02.740Z,4.27
2018-07-27T04:27:30.519Z,4.77
2018-07-27T04:29:58.378Z,4.73
2018-07-27T04:32:26.111Z,4.40
2018-07-27T04:34:53.944Z,5.07
2018-07-27T04:37:21.725Z,4.93
2018-07-27T04:39:49.440Z,4.73
2018-07-27T04:42:17.240Z,4.40
2018-07-27T04:44:45.070Z,4.37
2018-07-27T04:47:12.857Z,5.07
2018-07-27T04:49:40.867Z,4.47
2018-07-27T04:52:08.668Z,4.80
2018-07-27T04:54:36.455Z,4.57
2018-07-27T04:57:04.415Z,4.50
2018-07-27T04:59:32.207Z,4.70
2018-07-27T05:01:59.971Z,4.90
2018-07-27T05:04:27.743Z,4.40
2018-07-27T05:06:55.591Z,4.43
2018-07-27T05:09:23.808Z,4.80
2018-07-27T05:11:51.964Z,5.17
2018-07-27T05:14:19.691Z,5.07
2018-07-27T05:16:47.519Z,5.07
2018-07-27T05:19:15.323Z,4.87
2018-07-27T05:21:43.197Z,5.27
2018-07-27T05:24:11.032Z,4.70
2018-07-27T05:26:38.852Z,5.17
2018-07-27T05:29:06.675Z,4.97
2018-07-27T05:31:34.431Z,4.73
2018-07-27T05:34:02.294Z,4.90
2018-07-27T05:36:30.095Z,5.47
2018-07-27T05:38:58.322Z,4.77
2018-07-27T05:41:26.174Z,5.33
2018-07-27T05:43:53.991Z,4.80
2018-07-27T05:46:21.843Z,5.10
2018-07-27T05:48:49.684Z,5.03
2018-07-27T05:51:17.473Z,4.97
2018-07-27T05:53:45.306Z,5.20
2018-07-27T05:56:13.119Z,5.20
2018-07-27T05:58:40.975Z,4.93
2018-07-27T06:01:09.294Z,5.17
2018-07-27T06:03:37.119Z,4.90
2018-07-27T06:06:05.240Z,5.87
2018-07-27T06:08:33.692Z,4.23
2018-07-27T06:11:01.555Z,4.87
2018-07-27T06:13:29.392Z,4.70
2018-07-27T06:15:57.375Z,4.77
2018-07-27T06:18:25.183Z,4.93
2018-07-27T06:20:53.013Z,4.90
2018-07-27T06:23:20.814Z,5.27
2018-07-27T06:25:48.568Z,4.87
2018-07-27T06:28:16.390Z,5.00
2018-07-27T06:30:45.051Z,4.93
2018-07-27T06:33:12.801Z,4.77
2018-07-27T06:35:40.628Z,4.80
2018-07-27T06:38:08.503Z,4.90
2018-07-27T06:40:36.315Z,4.90
2018-07-27T06:43:04.227Z,4.63
2018-07-27T06:45:31.960Z,4.50
2018-07-27T06:47:59.755Z,5.10
2018-07-27T06:50:27.520Z,5.27
2018-07-27T06:52:55.285Z,5.43
2018-07-27T06:55:23.116Z,5.00
2018-07-27T06:57:51.326Z,5.10
2018-07-27T07:00:19.109Z,4.73
2018-07-27T07:02:46.890Z,5.00
2018-07-27T07:05:14.688Z,4.73
2018-07-27T07:07:42.467Z,5.20
2018-07-27T07:10:10.368Z,5.20
2018-07-27T07:12:38.168Z,4.77
2018-07-27T07:15:07.355Z,5.33
2018-07-27T07:17:35.179Z,5.40
2018-07-27T07:20:03.787Z,5.47
2018-07-27T07:22:31.604Z,5.00
2018-07-27T07:24:59.471Z,5.10
2018-07-27T07:27:27.263Z,5.27
2018-07-27T07:29:55.088Z,5.40
2018-07-27T07:32:22.855Z,5.00
2018-07-27T07:34:50.611Z,5.87
2018-07-27T07:37:18.647Z,5.20
2018-07-27T07:39:46.443Z,4.77
2018-07-27T07:42:14.264Z,5.60
2018-07-27T07:44:42.155Z,4.67
2018-07-27T07:47:09.953Z,5.17
2018-07-27T07:49:37.668Z,5.63
2018-07-27T07:52:05.800Z,5.40
2018-07-27T07:54:33.617Z,5.83
2018-07-27T07:57:01.374Z,5.33
2018-07-27T07:59:29.112Z,5.73
2018-07-27T08:01:56.856Z,5.90
2018-07-27T08:04:24.776Z,5.63
2018-07-27T08:06:52.491Z,5.47
2018-07-27T08:09:20.359Z,5.30
2018-07-27T08:11:48.179Z,5.50
2018-07-27T08:14:15.939Z,5.73
2018-07-27T08:16:43.737Z,5.77
2018-07-27T08:19:11.520Z,5.43
2018-07-27T08:21:39.387Z,5.43
2018-07-27T08:24:07.216Z,5.57
2018-07-27T08:26:45.760Z,5.63
2018-07-27T08:29:14.903Z,5.73
2018-07-27T08:31:43.972Z,5.37
2018-07-27T08:34:12.696Z,5.63
2018-07-27T08:36:40.515Z,5.53
2018-07-27T08:39:10.888Z,6.27
2018-07-27T08:41:39.341Z,5.67
2018-07-27T08:44:08.173Z,5.80
2018-07-27T08:46:36.223Z,6.07
2018-07-27T08:49:04.131Z,6.30
2018-07-27T08:51:32.199Z,5.50
2018-07-27T08:53:59.938Z,6.37
2018-07-27T08:56:27.773Z,5.73
2018-07-27T08:58:55.640Z,5.30
2018-07-27T09:01:24.095Z,5.73
2018-07-27T09:03:52.176Z,5.13
2018-07-27T09:06:19.962Z,6.07
2018-07-27T09:08:48.376Z,6.00
2018-07-27T09:11:16.195Z,5.93
2018-07-27T09:13:43.983Z,6.03
2018-07-27T09:16:11.791Z,5.53
2018-07-27T09:18:39.522Z,5.57
2018-07-27T09:21:07.321Z,5.57
2018-07-27T09:23:35.450Z,5.50
2018-07-27T09:26:03.298Z,6.17
2018-07-27T09:28:31.092Z,6.37
2018-07-27T09:30:58.871Z,6.10
2018-07-27T09:33:26.683Z,6.03
2018-07-27T09:35:54.476Z,5.47
2018-07-27T09:38:22.291Z,6.10
2018-07-27T09:40:50.140Z,5.90
2018-07-27T09:43:18.515Z,5.80
2018-07-27T09:45:46.239Z,5.90
2018-07-27T09:48:14.024Z,5.53
2018-07-27T09:50:42.963Z,5.87
2018-07-27T09:53:10.940Z,6.00
2018-07-27T09:55:38.779Z,6.30
2018-07-27T09:58:06.667Z,5.70
2018-07-27T10:00:40.132Z,6.23
2018-07-27T10:03:07.942Z,5.90
2018-07-27T10:05:35.650Z,6.30
2018-07-27T10:08:03.583Z,5.80
2018-07-27T10:10:31.367Z,6.60
2018-07-27T10:12:59.332Z,6.10
2018-07-27T10:15:27.087Z,5.70
2018-07-27T10:17:54.903Z,6.50
2018-07-27T10:20:22.751Z,6.00
2018-07-27T10:22:50.503Z,6.20
2018-07-27T10:25:18.327Z,6.87
2018-07-27T10:27:46.484Z,6.20
2018-07-27T10:30:14.384Z,6.47
2018-07-27T10:32:42.160Z,6.00
2018-07-27T10:35:10.007Z,6.30
2018-07-27T10:37:37.903Z,5.73
2018-07-27T10:40:06.723Z,6.70
2018-07-27T10:42:34.499Z,6.70
2018-07-27T10:45:02.379Z,5.77
2018-07-27T10:47:30.159Z,5.47
2018-07-27T10:49:57.947Z,6.27
2018-07-27T10:52:25.752Z,5.73
2018-07-27T10:54:53.559Z,5.92
2018-07-27T10:57:21.372Z,5.70
2018-07-27T10:59:49.187Z,6.60
2018-07-27T11:02:17.084Z,5.87
2018-07-27T11:04:44.883Z,5.12
2018-07-27T11:07:12.726Z,4.95
2018-07-27T11:09:40.600Z,4.53
2018-07-27T11:12:08.320Z,4.78
2018-07-27T11:14:36.119Z,4.60
2018-07-27T11:17:03.972Z,4.85
2018-07-27T11:19:32.164Z,4.50
2018-07-27T11:22:00.016Z,4.83
2018-07-27T11:24:27.773Z,4.80
2018-07-27T11:26:55.555Z,4.28
2018-07-27T11:29:23.396Z,4.03
2018-07-27T11:31:51.227Z,4.60
2018-07-27T11:34:19.051Z,4.92
2018-07-27T11:36:46.845Z,5.03
2018-07-27T11:39:14.631Z,5.10
2018-07-27T11:41:42.398Z,4.22
2018-07-27T11:44:10.140Z,4.42
2018-07-27T11:46:37.979Z,4.60
2018-07-27T12:00:54.483Z,4.60
2018-07-27T12:03:22.343Z,4.35
2018-07-27T12:05:50.189Z,3.98
2018-07-27T12:08:18.007Z,4.85
2018-07-27T12:10:45.863Z,4.58
2018-07-27T12:13:13.640Z,4.72
2018-07-27T12:15:41.392Z,4.40
2018-07-27T12:18:09.132Z,4.12
2018-07-27T12:20:37.064Z,3.98
2018-07-27T12:23:04.776Z,4.17
2018-07-27T12:25:32.575Z,4.15
2018-07-27T12:28:00.395Z,4.37
2018-07-27T12:30:28.332Z,4.20
2018-07-27T12:32:56.068Z,4.80
2018-07-27T12:35:23.793Z,5.05
2018-07-27T12:37:51.658Z,4.85
2018-07-27T12:40:19.530Z,4.40
2018-07-27T12:42:47.276Z,4.55
2018-07-27T12:45:15.122Z,4.50
2018-07-27T12:47:42.920Z,4.15
2018-07-27T12:50:10.975Z,4.00
2018-07-27T12:52:38.742Z,4.15
2018-07-27T12:55:06.751Z,4.05
2018-07-27T12:57:34.616Z,3.87
2018-07-27T13:00:02.407Z,4.17
2018-07-27T13:02:30.179Z,4.00
2018-07-27T13:04:57.964Z,3.85
2018-07-27T13:07:25.750Z,4.33
2018-07-27T13:09:58.092Z,4.12
2018-07-27T13:12:25.859Z,3.60
2018-07-27T13:14:53.627Z,3.70
2018-07-27T13:17:21.377Z,4.12
2018-07-27T13:19:49.192Z,3.90
2018-07-27T13:22:17.064Z,3.92
2018-07-27T13:24:59.730Z,3.80
2018-07-27T13:27:12.573Z,4.28
2018-07-27T13:29:40.376Z,4.05
2018-07-27T13:34:55.316Z,4.62
2018-07-27T13:37:25.403Z,4.55
2018-07-27T13:42:24.427Z,4.03
2018-07-27T13:44:52.238Z,3.98
2018-07-27T13:47:20.161Z,4.30
2018-07-27T13:49:48.020Z,4.28
2018-07-27T13:52:15.883Z,4.40
2018-07-27T13:54:43.693Z,4.60
2018-07-27T13:57:11.572Z,4.25
2018-07-27T13:59:39.811Z,3.98
2018-07-27T14:02:08.068Z,4.65
2018-07-27T14:04:35.927Z,4.17
2018-07-27T14:07:04.770Z,4.50
2018-07-27T14:09:32.574Z,4.17
2018-07-27T14:12:00.488Z,4.08
2018-07-27T14:14:28.354Z,4.30
2018-07-27T14:16:56.171Z,4.42
2018-07-27T14:19:24.680Z,4.80
2018-07-27T14:21:52.565Z,4.70
2018-07-27T14:24:20.380Z,4.35
2018-07-27T14:26:48.182Z,4.35
2018-07-27T14:29:16.057Z,4.35
2018-07-27T14:31:43.771Z,4.83
2018-07-27T14:34:11.550Z,4.58
2018-07-27T14:36:39.595Z,4.60
2018-07-27T14:39:09.073Z,4.42
2018-07-27T14:41:37.029Z,4.25
2018-07-27T14:44:04.831Z,4.65
2018-07-27T14:46:32.813Z,4.10
2018-07-27T14:49:00.563Z,4.40
2018-07-27T14:51:28.719Z,4.50
2018-07-27T14:53:56.713Z,4.10
2018-07-27T14:56:24.503Z,4.45
2018-07-27T14:58:52.329Z,3.60
2018-07-27T15:01:20.127Z,4.33
2018-07-27T15:03:47.896Z,4.03
2018-07-27T15:06:15.697Z,3.67
2018-07-27T15:08:43.575Z,4.40
2018-07-27T15:11:11.349Z,4.50
2018-07-27T15:13:39.183Z,4.07
2018-07-27T15:16:06.975Z,4.37
2018-07-27T15:18:34.744Z,3.93
2018-07-27T15:21:02.530Z,4.30
2018-07-27T15:23:30.353Z,4.30
2018-07-27T15:25:58.139Z,4.63
2018-07-27T15:28:26.018Z,4.20
2018-07-27T15:30:53.800Z,4.47
2018-07-27T15:33:21.520Z,4.57
2018-07-27T15:35:49.287Z,4.50
2018-07-27T15:38:17.055Z,4.60
2018-07-27T15:40:44.900Z,4.70
2018-07-27T15:43:12.689Z,4.10
2018-07-27T15:45:40.487Z,4.40
2018-07-27T15:48:08.347Z,4.17
2018-07-27T15:50:36.130Z,4.60
2018-07-27T15:53:03.999Z,4.10
2018-07-27T15:55:31.861Z,4.33
2018-07-27T15:58:01.411Z,4.00
2018-07-27T16:00:29.182Z,4.13
2018-07-27T16:02:57.031Z,4.20
2018-07-27T16:05:24.808Z,4.27
2018-07-27T16:07:52.601Z,4.33
2018-07-27T16:10:20.457Z,4.10
2018-07-27T16:12:48.284Z,4.50
2018-07-27T16:15:16.083Z,4.07
2018-07-27T16:17:43.872Z,4.00
2018-07-27T16:20:11.651Z,4.30
2018-07-27T16:22:39.567Z,4.53
2018-07-27T16:25:07.449Z,4.60
2018-07-27T16:27:35.255Z,3.83
2018-07-27T16:30:03.305Z,4.50
2018-07-27T16:32:31.147Z,4.10
2018-07-27T16:34:58.980Z,4.05
2018-07-27T16:37:26.799Z,4.30
2018-07-27T16:39:54.687Z,4.63
2018-07-27T16:42:22.435Z,4.10
2018-07-27T16:44:50.232Z,4.33
2018-07-27T16:47:18.075Z,4.33
2018-07-27T16:49:45.900Z,4.03
2018-07-27T16:52:13.719Z,3.50
2018-07-27T16:54:41.608Z,4.10
2018-07-27T16:57:09.405Z,4.80
2018-07-27T16:59:37.471Z,4.30
2018-07-27T17:02:05.275Z,4.00
2018-07-27T17:04:33.040Z,5.00
2018-07-27T17:07:01.077Z,4.40
2018-07-27T17:09:28.911Z,4.17
2018-07-27T17:11:56.698Z,4.27
2018-07-27T17:14:24.467Z,4.20
2018-07-27T17:16:52.259Z,4.30
2018-07-27T17:19:20.061Z,3.87
2018-07-27T17:21:47.861Z,4.53
2018-07-27T17:24:15.737Z,4.40
2018-07-27T17:26:43.569Z,4.33
2018-07-27T17:29:11.311Z,4.10
2018-07-27T17:31:39.103Z,4.30
2018-07-27T17:34:06.875Z,4.20
2018-07-27T17:36:34.720Z,4.80
2018-07-27T17:39:02.886Z,4.03
2018-07-27T17:41:30.707Z,3.93
2018-07-27T17:43:58.495Z,4.10
2018-07-27T17:46:26.287Z,4.80
2018-07-27T17:48:54.155Z,4.47
2018-07-27T17:51:21.971Z,4.40
2018-07-27T17:53:49.851Z,4.53
2018-07-27T17:56:17.723Z,5.07
2018-07-27T17:58:45.518Z,6.87
2018-07-27T18:01:13.297Z,8.10
2018-07-27T18:03:41.083Z,5.50
2018-07-27T18:06:08.860Z,5.03
2018-07-27T18:08:36.651Z,6.00
2018-07-27T18:11:04.451Z,5.17
2018-07-27T18:13:32.262Z,4.90
2018-07-27T18:16:00.035Z,5.33
2018-07-27T18:18:27.791Z,5.47
2018-07-27T18:20:55.576Z,5.17
2018-07-27T18:23:23.387Z,5.50
2018-07-27T18:25:51.226Z,5.00
2018-07-27T18:28:19.027Z,5.30
2018-07-27T18:30:46.906Z,4.93
2018-07-27T18:33:14.700Z,4.83
2018-07-27T18:35:42.508Z,4.90
2018-07-27T18:38:10.343Z,5.27
2018-07-27T18:40:38.088Z,4.93
2018-07-27T18:43:05.917Z,4.77
2018-07-27T18:45:33.777Z,4.93
2018-07-27T18:48:01.577Z,4.70
2018-07-27T18:50:29.464Z,5.03
2018-07-27T18:52:57.257Z,4.97
2018-07-27T18:55:25.113Z,4.70
2018-07-27T18:57:52.911Z,4.93
2018-07-27T19:00:20.680Z,5.07
2018-07-27T19:02:48.515Z,5.27
2018-07-27T19:05:16.237Z,5.30
2018-07-27T19:07:44.075Z,5.13
2018-07-27T19:10:11.931Z,4.90
2018-07-27T19:12:39.710Z,5.37
2018-07-27T19:15:08.299Z,5.07
2018-07-27T19:17:36.228Z,5.27
2018-07-27T19:20:04.358Z,4.73
2018-07-27T19:22:32.215Z,5.67
2018-07-27T19:25:00.024Z,5.03
2018-07-27T19:27:27.836Z,5.67
2018-07-27T19:29:55.621Z,5.43
2018-07-27T19:32:23.374Z,5.10
2018-07-27T19:34:51.216Z,5.43
2018-07-27T19:37:18.980Z,6.20
2018-07-27T19:39:46.766Z,6.13
2018-07-27T19:42:14.583Z,6.50
2018-07-27T19:44:42.319Z,6.37
2018-07-27T19:47:10.124Z,5.80
2018-07-27T19:49:38.010Z,5.60
2018-07-27T19:52:05.969Z,5.40
2018-07-27T19:54:33.944Z,5.33
2018-07-27T19:57:01.675Z,5.27
2018-07-27T19:59:29.458Z,5.37
2018-07-27T20:01:57.244Z,5.30
2018-07-27T20:04:25.029Z,4.93
2018-07-27T20:06:52.876Z,5.90
2018-07-27T20:09:20.705Z,5.93
2018-07-27T20:11:48.491Z,6.83
2018-07-27T20:14:16.270Z,7.73
2018-07-27T20:16:44.083Z,6.73
2018-07-27T20:19:11.883Z,6.80
2018-07-27T20:21:39.915Z,6.33
2018-07-27T20:24:07.671Z,6.47
2018-07-27T20:26:35.478Z,5.63
2018-07-27T20:29:03.380Z,5.73
2018-07-27T20:31:31.118Z,5.80
2018-07-27T20:33:58.971Z,6.80
2018-07-27T20:36:26.818Z,8.20
2018-07-27T20:38:54.767Z,7.00
2018-07-27T20:41:22.832Z,7.20
2018-07-27T20:43:50.767Z,6.27
2018-07-27T20:46:18.524Z,6.37
2018-07-27T20:48:46.416Z,5.60
2018-07-27T20:51:14.291Z,6.13
2018-07-27T20:53:42.075Z,6.83
2018-07-27T20:56:09.808Z,6.80
2018-07-27T20:58:37.629Z,6.43
2018-07-27T21:01:05.426Z,6.30
2018-07-27T21:03:33.304Z,5.97
2018-07-27T21:06:01.131Z,6.07
2018-07-27T21:08:28.903Z,6.30
2018-07-27T21:10:56.696Z,6.23
2018-07-27T21:13:24.556Z,6.53
2018-07-27T21:15:52.387Z,6.50
2018-07-27T21:18:20.235Z,6.17
2018-07-27T21:20:47.983Z,6.23
2018-07-27T21:23:15.810Z,6.17
2018-07-27T21:25:43.640Z,6.43
2018-07-27T21:28:11.392Z,6.37
2018-07-27T21:30:39.211Z,6.60
2018-07-27T21:33:06.995Z,6.87
2018-07-27T21:35:34.779Z,7.20
2018-07-27T21:38:03.010Z,6.73
2018-07-27T21:40:30.904Z,6.60
2018-07-27T21:42:58.726Z,7.10
2018-07-27T21:45:26.599Z,7.10
2018-07-27T21:47:54.453Z,7.40
2018-07-27T21:50:22.207Z,6.70
2018-07-27T21:52:50.156Z,6.57
2018-07-27T21:55:18.163Z,6.63
2018-07-27T21:57:45.990Z,6.63
2018-07-27T22:00:14.256Z,6.53
2018-07-27T22:02:42.313Z,6.50
2018-07-27T22:05:10.180Z,6.53
2018-07-27T22:07:37.979Z,6.60
2018-07-27T22:10:05.920Z,6.60
2018-07-27T22:12:33.752Z,6.33
2018-07-27T22:15:01.581Z,6.40
2018-07-27T22:17:29.385Z,6.50
2018-07-27T22:19:57.435Z,6.83
2018-07-27T22:22:25.283Z,7.10
2018-07-27T22:24:53.945Z,6.30
2018-07-27T22:27:21.924Z,6.40
2018-07-27T22:29:50.145Z,5.87
2018-07-27T22:32:18.028Z,5.93
2018-07-27T22:34:48.674Z,6.77
2018-07-27T22:37:16.619Z,5.90
2018-07-27T22:39:44.404Z,6.27
2018-07-27T22:42:12.314Z,5.80
2018-07-27T22:44:40.162Z,6.00
2018-07-27T22:47:07.959Z,6.40
2018-07-27T22:49:35.697Z,5.63
2018-07-27T22:52:03.593Z,5.53
2018-07-27T22:54:32.066Z,5.90
2018-07-27T22:57:00.856Z,5.73
2018-07-27T22:59:30.117Z,5.70
2018-07-27T23:01:58.041Z,6.50
2018-07-27T23:04:25.747Z,6.57
2018-07-27T23:06:53.527Z,7.80
2018-07-27T23:09:21.325Z,7.37
2018-07-27T23:11:50.319Z,6.57
2018-07-27T23:14:18.154Z,6.30
2018-07-27T23:16:46.019Z,6.03
2018-07-27T23:19:13.913Z,7.23
2018-07-27T23:21:41.711Z,6.10
2018-07-27T23:24:09.505Z,5.50
2018-07-27T23:26:37.346Z,6.37
2018-07-27T23:29:05.219Z,6.03
2018-07-27T23:31:33.012Z,5.87
2018-07-27T23:34:00.891Z,6.07
2018-07-27T23:36:28.773Z,6.13
2018-07-27T23:38:56.651Z,6.77
2018-07-27T23:41:24.533Z,4.40
2018-07-27T23:43:52.317Z,6.20
2018-07-27T23:46:20.121Z,6.80
2018-07-27T23:48:47.927Z,4.33
2018-07-27T23:51:15.731Z,5.93
2018-07-27T23:53:43.500Z,6.93
2018-07-27T23:56:11.350Z,4.87
2018-07-27T23:58:39.132Z,6.70
